createdAt,value
2023-03-13T00:01:33.216Z,101084.38
2023-03-13T00:04:01.634Z,101090.03
2023-03-13T00:06:34.505Z,101093.56
2023-03-13T00:09:02.769Z,101088.47
2023-03-13T00:11:30.425Z,101092.72
2023-03-13T00:14:02.313Z,101105.44
2023-03-13T00:16:34.729Z,101108.38
2023-03-13T00:19:02.301Z,101108.25
2023-03-13T00:21:30.094Z,101111.91
2023-03-13T00:24:04.038Z,101103.38
2023-03-13T00:26:32.480Z,101115.22
2023-03-13T00:29:00.756Z,101121.72
2023-03-13T00:31:31.431Z,101116.19
2023-03-13T00:34:02.575Z,101108.88
2023-03-13T00:36:32.824Z,101114.75
2023-03-13T00:39:08.227Z,101125.75
2023-03-13T00:41:36.178Z,101128.19
2023-03-13T00:44:04.445Z,101131.88
2023-03-13T00:46:32.071Z,101129.63
2023-03-13T00:48:59.717Z,101130.25
2023-03-13T00:51:27.662Z,101137.47
2023-03-13T00:53:56.594Z,101141.09
2023-03-13T00:56:24.868Z,101139.13
2023-03-13T00:58:52.968Z,101141.81
2023-03-13T01:01:28.782Z,101145.50
2023-03-13T01:03:58.368Z,101153.84
2023-03-13T01:06:27.698Z,101151.09
2023-03-13T01:08:59.346Z,101154.00
2023-03-13T01:11:29.500Z,101153.31
2023-03-13T01:13:59.371Z,101163.06
2023-03-13T01:16:29.302Z,101167.13
2023-03-13T01:19:03.393Z,101178.75
2023-03-13T01:21:30.989Z,101179.97
2023-03-13T01:23:58.706Z,101183.88
2023-03-13T01:26:27.516Z,101193.19
2023-03-13T01:28:55.855Z,101192.41
2023-03-13T01:31:31.961Z,101196.41
2023-03-13T01:34:01.543Z,101190.63
2023-03-13T01:36:31.451Z,101199.03
2023-03-13T01:39:00.247Z,101202.47
2023-03-13T01:41:30.093Z,101208.75
2023-03-13T01:43:58.728Z,101203.28
2023-03-13T01:46:32.236Z,101221.25
2023-03-13T01:49:10.196Z,101221.09
2023-03-13T01:52:23.972Z,101219.53
2023-03-13T01:54:57.401Z,101221.94
2023-03-13T01:57:37.481Z,101224.63
2023-03-13T02:00:13.623Z,101232.94
2023-03-13T02:02:50.010Z,101238.38
2023-03-13T02:05:19.368Z,101240.13
2023-03-13T02:08:11.865Z,101248.41
2023-03-13T02:10:42.808Z,101250.31
2023-03-13T02:13:17.473Z,101253.97
2023-03-13T02:15:45.363Z,101262.31
2023-03-13T02:18:13.006Z,101273.38
2023-03-13T02:20:44.801Z,101272.19
2023-03-13T02:23:20.512Z,101271.16
2023-03-13T02:25:52.173Z,101272.06
2023-03-13T02:28:34.622Z,101280.53
2023-03-13T02:31:05.197Z,101281.91
2023-03-13T02:33:37.944Z,101282.09
2023-03-13T02:36:10.570Z,101290.53
2023-03-13T02:38:51.038Z,101287.25
2023-03-13T02:41:18.861Z,101289.59
2023-03-13T02:43:46.864Z,101306.00
2023-03-13T02:46:19.545Z,101311.84
2023-03-13T02:48:57.599Z,101313.19
2023-03-13T02:51:33.148Z,101320.13
2023-03-13T02:54:12.573Z,101323.75
2023-03-13T02:56:42.007Z,101325.81
2023-03-13T02:59:11.091Z,101333.00
2023-03-13T03:01:41.966Z,101336.81
2023-03-13T03:04:09.771Z,101348.09
2023-03-13T03:06:37.492Z,101351.81
2023-03-13T03:09:07.408Z,101356.00
2023-03-13T03:11:38.742Z,101370.19
2023-03-13T03:14:10.331Z,101371.94
2023-03-13T03:16:43.005Z,101362.81
2023-03-13T03:19:15.511Z,101370.44
2023-03-13T03:21:43.474Z,101369.59
2023-03-13T03:24:11.105Z,101368.22
2023-03-13T03:26:38.641Z,101371.56
2023-03-13T03:29:12.349Z,101372.50
2023-03-13T03:31:44.571Z,101371.22
2023-03-13T03:34:13.228Z,101378.81
2023-03-13T03:36:40.877Z,101376.06
2023-03-13T03:39:08.433Z,101382.31
2023-03-13T03:41:37.575Z,101393.25
2023-03-13T03:44:06.278Z,101401.41
2023-03-13T03:46:48.978Z,101397.97
2023-03-13T03:49:17.140Z,101405.81
2023-03-13T03:51:44.818Z,101412.59
2023-03-13T03:54:15.306Z,101414.94
2023-03-13T03:56:43.026Z,101421.38
2023-03-13T03:59:16.656Z,101429.75
2023-03-13T04:01:57.392Z,101436.19
2023-03-13T04:04:27.380Z,101443.06
2023-03-13T04:07:02.443Z,101451.31
2023-03-13T04:09:32.313Z,101455.72
2023-03-13T04:12:02.077Z,101455.03
2023-03-13T04:14:33.732Z,101467.03
2023-03-13T04:17:04.955Z,101464.84
2023-03-13T04:19:34.375Z,101473.69
2023-03-13T04:22:02.555Z,101487.09
2023-03-13T04:24:30.568Z,101498.00
2023-03-13T04:26:58.640Z,101500.84
2023-03-13T04:29:27.031Z,101498.72
2023-03-13T04:32:03.573Z,101505.59
2023-03-13T04:34:54.867Z,101516.47
2023-03-13T04:37:46.194Z,101519.56
2023-03-13T04:40:34.030Z,101524.97
2023-03-13T04:43:17.629Z,101531.88
2023-03-13T04:46:11.356Z,101535.72
2023-03-13T04:48:51.896Z,101541.53
2023-03-13T04:51:38.076Z,101548.41
2023-03-13T04:54:28.918Z,101548.22
2023-03-13T04:57:08.742Z,101555.41
2023-03-13T05:00:08.267Z,101562.19
2023-03-13T05:02:53.358Z,101563.78
2023-03-13T05:05:29.289Z,101571.97
2023-03-13T05:08:18.063Z,101576.78
2023-03-13T05:14:38.727Z,101597.84
2023-03-13T05:17:15.655Z,101594.00
2023-03-13T05:20:11.460Z,101596.06
2023-03-13T05:23:03.352Z,101605.66
2023-03-13T05:25:56.745Z,101606.41
2023-03-13T05:28:43.150Z,101609.31
2023-03-13T05:31:10.925Z,101605.78
2023-03-13T05:33:57.105Z,101614.78
2023-03-13T05:36:43.596Z,101618.78
2023-03-13T05:39:41.166Z,101622.81
2023-03-13T05:42:45.171Z,101634.22
2023-03-13T05:45:32.673Z,101639.44
2023-03-13T05:48:12.146Z,101633.19
2023-03-13T05:51:00.703Z,101640.44
2023-03-13T05:53:54.186Z,101644.91
2023-03-13T05:56:53.185Z,101657.38
2023-03-13T05:59:46.989Z,101656.25
2023-03-13T06:02:41.024Z,101667.47
2023-03-13T06:05:13.955Z,101660.53
2023-03-13T06:07:41.667Z,101666.34
2023-03-13T06:10:10.655Z,101670.06
2023-03-13T06:12:38.877Z,101674.16
2023-03-13T06:15:11.695Z,101688.44
2023-03-13T06:17:56.148Z,101690.34
2023-03-13T06:20:24.060Z,101698.53
2023-03-13T06:22:52.831Z,101705.34
2023-03-13T06:25:20.682Z,101702.88
2023-03-13T06:27:48.278Z,101696.78
2023-03-13T06:30:16.271Z,101721.47
2023-03-13T06:32:44.402Z,101716.75
2023-03-13T06:35:12.399Z,101725.00
2023-03-13T06:37:41.279Z,101738.59
2023-03-13T06:40:09.852Z,101727.41
2023-03-13T06:42:38.599Z,101734.94
2023-03-13T06:45:06.696Z,101746.75
2023-03-13T06:47:34.540Z,101759.28
2023-03-13T06:50:02.110Z,101747.19
2023-03-13T06:52:41.397Z,101759.94
2023-03-13T06:55:11.272Z,101767.53
2023-03-13T06:57:39.968Z,101759.06
2023-03-13T07:00:11.513Z,101786.28
2023-03-13T07:02:39.142Z,101792.84
2023-03-13T07:05:08.692Z,101793.28
2023-03-13T07:07:36.838Z,101778.91
2023-03-13T07:10:05.369Z,101791.63
2023-03-13T07:12:35.817Z,101783.22
2023-03-13T07:15:04.690Z,101800.28
2023-03-13T07:17:35.301Z,101803.44
2023-03-13T07:20:10.746Z,101802.13
2023-03-13T07:22:38.433Z,101802.88
2023-03-13T07:25:07.319Z,101797.44
2023-03-13T07:27:35.818Z,101799.66
2023-03-13T07:30:03.598Z,101794.00
2023-03-13T07:32:33.434Z,101797.44
2023-03-13T07:35:03.434Z,101813.41
2023-03-13T07:37:31.254Z,101816.91
2023-03-13T07:39:59.093Z,101815.38
2023-03-13T07:42:29.329Z,101821.63
2023-03-13T07:44:56.924Z,101807.88
2023-03-13T07:47:24.465Z,101819.81
2023-03-13T07:49:54.023Z,101819.56
2023-03-13T07:52:23.191Z,101813.50
2023-03-13T07:54:51.265Z,101804.16
2023-03-13T07:57:20.840Z,101810.19
2023-03-13T07:59:48.473Z,101809.19
2023-03-13T08:02:17.207Z,101813.84
2023-03-13T08:04:44.956Z,101819.53
2023-03-13T08:07:12.816Z,101812.78
2023-03-13T08:09:41.567Z,101819.03
2023-03-13T08:12:11.256Z,101811.41
2023-03-13T08:14:39.113Z,101825.28
2023-03-13T08:17:07.448Z,101827.28
2023-03-13T08:19:38.652Z,101832.69
2023-03-13T08:22:06.202Z,101824.44
2023-03-13T08:24:33.967Z,101829.50
2023-03-13T08:27:02.750Z,101829.84
2023-03-13T08:29:30.515Z,101844.63
2023-03-13T08:31:58.201Z,101848.28
2023-03-13T08:34:25.794Z,101849.53
2023-03-13T08:36:53.439Z,101840.94
2023-03-13T08:39:21.856Z,101853.56
2023-03-13T08:41:49.546Z,101845.72
2023-03-13T08:44:21.433Z,101861.69
2023-03-13T08:46:52.569Z,101867.09
2023-03-13T08:49:20.237Z,101865.38
2023-03-13T08:51:48.838Z,101871.66
2023-03-13T08:54:16.527Z,101880.50
2023-03-13T08:56:44.753Z,101871.78
2023-03-13T08:59:12.861Z,101879.66
2023-03-13T09:01:40.373Z,101894.06
2023-03-13T09:04:08.124Z,101883.34
2023-03-13T09:06:36.653Z,101888.00
2023-03-13T09:09:10.722Z,101885.19
2023-03-13T09:11:42.268Z,101872.13
2023-03-13T09:14:12.001Z,101891.47
2023-03-13T09:16:42.486Z,101876.09
2023-03-13T09:19:11.114Z,101873.00
2023-03-13T09:21:38.666Z,101872.28
2023-03-13T09:24:06.661Z,101885.66
2023-03-13T09:26:34.243Z,101884.56
2023-03-13T09:29:02.201Z,101870.06
2023-03-13T09:31:30.920Z,101881.19
2023-03-13T09:34:02.175Z,101878.13
2023-03-13T09:36:30.174Z,101882.34
2023-03-13T09:38:58.719Z,101879.25
2023-03-13T09:41:40.778Z,101879.16
2023-03-13T09:44:19.649Z,101878.81
2023-03-13T09:47:00.103Z,101883.66
2023-03-13T09:49:35.056Z,101885.50
2023-03-13T09:52:16.952Z,101887.19
2023-03-13T09:55:03.605Z,101884.94
2023-03-13T09:58:08.731Z,101870.38
2023-03-13T10:00:44.694Z,101872.75
2023-03-13T10:03:29.652Z,101879.09
2023-03-13T10:06:01.729Z,101873.94
2023-03-13T10:08:34.101Z,101873.00
2023-03-13T10:11:10.385Z,101873.41
2023-03-13T10:13:39.330Z,101874.53
2023-03-13T10:16:10.172Z,101866.97
2023-03-13T10:18:37.867Z,101859.16
2023-03-13T10:21:20.134Z,101869.22
2023-03-13T10:23:58.121Z,101872.56
2023-03-13T10:26:29.053Z,101853.31
2023-03-13T10:28:57.367Z,101859.28
2023-03-13T10:31:32.466Z,101853.78
2023-03-13T10:34:46.618Z,101852.59
2023-03-13T10:37:15.561Z,101855.53
2023-03-13T10:39:47.389Z,101852.69
2023-03-13T10:42:21.892Z,101839.22
2023-03-13T10:44:50.450Z,101845.53
2023-03-13T10:47:18.031Z,101839.75
2023-03-13T10:49:53.120Z,101840.25
2023-03-13T10:52:32.531Z,101837.47
2023-03-13T10:55:01.615Z,101833.31
2023-03-13T10:57:30.952Z,101837.34
2023-03-13T10:59:58.989Z,101831.19
2023-03-13T11:02:39.184Z,101827.06
2023-03-13T11:05:25.555Z,101831.47
2023-03-13T11:07:53.635Z,101816.47
2023-03-13T11:10:29.994Z,101829.91
2023-03-13T11:13:00.116Z,101817.63
2023-03-13T11:15:44.595Z,101825.72
2023-03-13T11:18:15.702Z,101825.06
2023-03-13T11:20:45.249Z,101813.16
2023-03-13T11:23:34.099Z,101819.19
2023-03-13T11:26:10.842Z,101815.03
2023-03-13T11:29:19.520Z,101807.81
2023-03-13T11:31:49.393Z,101807.59
2023-03-13T11:34:40.270Z,101808.59
2023-03-13T11:37:14.968Z,101824.19
2023-03-13T11:39:47.533Z,101805.56
2023-03-13T11:42:52.573Z,101800.56
2023-03-13T11:45:35.565Z,101792.06
2023-03-13T11:48:26.901Z,101791.41
2023-03-13T11:51:20.580Z,101787.78
2023-03-13T11:54:13.823Z,101782.22
2023-03-13T11:56:44.063Z,101785.13
2023-03-13T11:59:30.001Z,101788.31
2023-03-13T12:02:01.175Z,101803.84
2023-03-13T12:04:35.622Z,101799.22
2023-03-13T12:07:06.909Z,101787.50
2023-03-13T12:10:05.938Z,101784.09
2023-03-13T12:12:41.385Z,101779.41
2023-03-13T12:15:21.904Z,101783.59
2023-03-13T12:18:00.870Z,101786.00
2023-03-13T12:20:42.338Z,101784.81
2023-03-13T12:23:42.320Z,101782.66
2023-03-13T12:26:15.312Z,101782.66
2023-03-13T12:28:49.435Z,101785.72
2023-03-13T12:31:30.360Z,101794.41
2023-03-13T12:34:18.886Z,101768.66
2023-03-13T12:36:55.709Z,101763.56
2023-03-13T12:39:41.977Z,101779.94
2023-03-13T12:42:17.330Z,101777.00
2023-03-13T12:44:44.901Z,101773.19
2023-03-13T12:47:31.320Z,101779.13
2023-03-13T12:50:32.525Z,101769.72
2023-03-13T12:53:34.798Z,101776.25
2023-03-13T12:56:44.017Z,101778.16
2023-03-13T12:59:16.416Z,101770.59
2023-03-13T13:01:51.784Z,101766.84
2023-03-13T13:04:26.000Z,101754.06
2023-03-13T13:07:05.026Z,101769.22
2023-03-13T13:09:37.231Z,101765.81
2023-03-13T13:12:23.306Z,101770.63
2023-03-13T13:14:51.133Z,101794.53
2023-03-13T13:17:39.067Z,101785.25
2023-03-13T13:20:25.508Z,101774.56
2023-03-13T13:22:53.802Z,101786.66
2023-03-13T13:25:24.597Z,101787.41
2023-03-13T13:27:52.462Z,101799.00
2023-03-13T13:30:20.100Z,101798.38
2023-03-13T13:32:51.784Z,101783.47
2023-03-13T13:35:20.754Z,101784.53
2023-03-13T13:37:49.640Z,101790.56
2023-03-13T13:40:26.250Z,101793.53
2023-03-13T13:42:58.203Z,101806.03
2023-03-13T13:45:29.366Z,101795.00
2023-03-13T13:48:15.554Z,101783.28
2023-03-13T13:51:18.708Z,101787.53
2023-03-13T13:53:46.226Z,101789.88
2023-03-13T13:56:28.911Z,101777.16
2023-03-13T13:59:24.889Z,101775.28
2023-03-13T14:02:09.846Z,101787.91
2023-03-13T14:04:55.806Z,101795.69
2023-03-13T14:07:42.017Z,101796.78
2023-03-13T14:10:40.072Z,101785.88
2023-03-13T14:13:34.019Z,101781.06
2023-03-13T14:16:24.383Z,101775.00
2023-03-13T14:18:54.448Z,101786.09
2023-03-13T14:21:25.284Z,101773.91
2023-03-13T14:23:52.996Z,101776.88
2023-03-13T14:26:28.464Z,101770.28
2023-03-13T14:29:02.982Z,101784.31
2023-03-13T14:31:35.978Z,101787.66
2023-03-13T14:34:11.545Z,101774.41
2023-03-13T14:37:11.168Z,101780.13
2023-03-13T14:39:45.619Z,101770.81
2023-03-13T14:42:14.089Z,101786.84
2023-03-13T14:44:44.119Z,101774.47
2023-03-13T14:47:26.884Z,101780.72
2023-03-13T14:50:01.929Z,101786.66
2023-03-13T14:52:34.193Z,101782.94
2023-03-13T14:55:07.997Z,101776.44
2023-03-13T14:57:35.834Z,101780.53
2023-03-13T15:00:29.615Z,101784.78
2023-03-13T15:03:13.105Z,101789.59
2023-03-13T15:05:40.788Z,101779.84
2023-03-13T15:08:17.482Z,101779.47
2023-03-13T15:10:45.446Z,101790.47
2023-03-13T15:13:19.762Z,101795.84
2023-03-13T15:15:47.619Z,101787.97
2023-03-13T15:18:23.523Z,101787.47
2023-03-13T15:20:52.690Z,101788.97
2023-03-13T15:23:20.711Z,101788.84
2023-03-13T15:25:48.537Z,101797.31
2023-03-13T15:28:21.443Z,101805.31
2023-03-13T15:30:51.381Z,101815.66
2023-03-13T15:33:22.823Z,101816.25
2023-03-13T15:35:50.294Z,101820.59
2023-03-13T15:38:20.633Z,101822.06
2023-03-13T15:40:48.306Z,101825.06
2023-03-13T15:43:17.760Z,101818.69
2023-03-13T15:45:45.688Z,101822.34
2023-03-13T15:48:19.736Z,101829.81
2023-03-13T15:50:54.871Z,101831.97
2023-03-13T15:53:27.905Z,101837.50
2023-03-13T15:55:57.940Z,101853.44
2023-03-13T15:58:27.552Z,101846.91
2023-03-13T16:00:56.251Z,101845.38
2023-03-13T16:03:25.970Z,101845.78
2023-03-13T16:05:54.077Z,101848.16
2023-03-13T16:08:35.235Z,101851.03
2023-03-13T16:11:04.849Z,101861.44
2023-03-13T16:13:33.386Z,101865.38
2023-03-13T16:16:01.596Z,101864.78
2023-03-13T16:18:29.352Z,101868.56
2023-03-13T16:20:57.265Z,101873.19
2023-03-13T16:23:24.857Z,101875.88
2023-03-13T16:25:52.372Z,101874.97
2023-03-13T16:28:19.921Z,101875.81
2023-03-13T16:30:47.888Z,101865.22
2023-03-13T16:33:15.484Z,101874.84
2023-03-13T16:35:43.769Z,101862.28
2023-03-13T16:38:11.278Z,101858.69
2023-03-13T16:40:39.626Z,101855.19
2023-03-13T16:43:07.679Z,101858.81
2023-03-13T16:45:39.630Z,101857.09
2023-03-13T16:48:07.380Z,101860.78
2023-03-13T16:50:36.739Z,101865.13
2023-03-13T16:53:04.942Z,101869.25
2023-03-13T16:55:36.788Z,101870.75
2023-03-13T16:58:04.784Z,101866.03
2023-03-13T17:00:32.605Z,101866.72
2023-03-13T17:03:01.665Z,101875.09
2023-03-13T17:05:29.685Z,101879.31
2023-03-13T17:07:57.252Z,101875.22
2023-03-13T17:10:26.945Z,101874.34
2023-03-13T17:12:54.575Z,101878.34
2023-03-13T17:15:25.666Z,101878.47
2023-03-13T17:17:56.176Z,101883.84
2023-03-13T17:20:25.744Z,101881.69
2023-03-13T17:22:56.363Z,101881.03
2023-03-13T17:25:25.080Z,101889.41
2023-03-13T17:27:55.892Z,101880.81
2023-03-13T17:30:24.975Z,101879.06
2023-03-13T17:32:52.718Z,101877.66
2023-03-13T17:35:23.237Z,101879.47
2023-03-13T17:37:51.036Z,101878.81
2023-03-13T17:40:23.581Z,101876.34
2023-03-13T17:42:51.281Z,101884.06
2023-03-13T17:45:19.029Z,101871.97
2023-03-13T17:47:47.226Z,101883.72
2023-03-13T17:50:17.670Z,101887.56
2023-03-13T17:52:51.200Z,101893.25
2023-03-13T17:55:19.342Z,101891.44
2023-03-13T17:57:48.470Z,101889.81
2023-03-13T18:00:22.231Z,101897.44
2023-03-13T18:02:50.384Z,101903.00
2023-03-13T18:05:18.288Z,101905.16
2023-03-13T18:07:46.323Z,101912.47
2023-03-13T18:10:25.144Z,101921.66
2023-03-13T18:12:53.240Z,101917.34
2023-03-13T18:15:21.643Z,101928.22
2023-03-13T18:17:52.012Z,101916.91
2023-03-13T18:20:25.516Z,101928.91
2023-03-13T18:22:54.245Z,101927.28
2023-03-13T18:25:23.385Z,101926.72
2023-03-13T18:27:50.974Z,101930.28
2023-03-13T18:30:23.839Z,101931.91
2023-03-13T18:32:51.680Z,101925.84
2023-03-13T18:35:19.228Z,101920.47
2023-03-13T18:37:49.686Z,101922.09
2023-03-13T18:40:36.346Z,101929.41
2023-03-13T18:43:06.639Z,101926.91
2023-03-13T18:45:36.522Z,101925.97
2023-03-13T18:48:04.180Z,101918.84
2023-03-13T18:50:32.308Z,101921.94
2023-03-13T18:53:00.082Z,101912.81
2023-03-13T18:55:28.761Z,101916.44
2023-03-13T18:57:56.538Z,101906.88
2023-03-13T19:00:25.892Z,101915.09
2023-03-13T19:02:53.606Z,101914.72
2023-03-13T19:05:21.188Z,101915.34
2023-03-13T19:07:49.836Z,101915.28
2023-03-13T19:10:24.359Z,101914.41
2023-03-13T19:12:58.313Z,101920.97
2023-03-13T19:15:27.626Z,101920.72
2023-03-13T19:17:56.359Z,101921.72
2023-03-13T19:20:25.150Z,101918.84
2023-03-13T19:22:54.506Z,101915.16
2023-03-13T19:25:22.813Z,101921.78
2023-03-13T19:27:51.683Z,101909.22
2023-03-13T19:30:23.766Z,101910.66
2023-03-13T19:32:57.827Z,101911.59
2023-03-13T19:35:25.551Z,101910.78
2023-03-13T19:37:53.190Z,101902.59
2023-03-13T19:40:23.013Z,101907.84
2023-03-13T19:42:50.529Z,101907.84
2023-03-13T19:45:20.560Z,101904.22
2023-03-13T19:47:48.296Z,101905.53
2023-03-13T19:50:20.622Z,101913.41
2023-03-13T19:52:48.704Z,101913.22
2023-03-13T19:55:16.512Z,101922.41
2023-03-13T19:57:44.630Z,101918.22
2023-03-13T20:00:21.714Z,101920.28
2023-03-13T20:02:58.452Z,101920.28
2023-03-13T20:05:28.886Z,101926.81
2023-03-13T20:07:58.862Z,101915.41
2023-03-13T20:10:27.776Z,101920.28
2023-03-13T20:12:58.134Z,101922.53
2023-03-13T20:15:25.732Z,101928.03
2023-03-13T20:17:53.332Z,101913.72
2023-03-13T20:20:21.073Z,101914.81
2023-03-13T20:22:50.538Z,101926.25
2023-03-13T20:25:18.548Z,101923.09
2023-03-13T20:27:49.818Z,101925.03
2023-03-13T20:30:17.667Z,101914.53
2023-03-13T20:32:57.006Z,101921.56
2023-03-13T20:35:27.749Z,101924.25
2023-03-13T20:37:57.546Z,101916.72
2023-03-13T20:40:25.902Z,101914.47
2023-03-13T20:42:53.445Z,101908.22
2023-03-13T20:45:21.286Z,101907.34
2023-03-13T20:47:49.688Z,101910.38
2023-03-13T20:50:19.557Z,101907.94
2023-03-13T20:52:48.902Z,101903.75
2023-03-13T20:55:16.851Z,101904.97
2023-03-13T20:57:46.362Z,101903.56
2023-03-13T21:00:14.519Z,101907.34
2023-03-13T21:02:42.076Z,101912.72
2023-03-13T21:05:10.216Z,101911.66
2023-03-13T21:07:37.900Z,101910.25
2023-03-13T21:10:14.447Z,101912.41
2023-03-13T21:12:42.218Z,101914.97
2023-03-13T21:15:10.304Z,101906.47
2023-03-13T21:17:38.467Z,101907.97
2023-03-13T21:20:13.832Z,101911.53
2023-03-13T21:22:42.166Z,101916.31
2023-03-13T21:25:10.544Z,101909.28
2023-03-13T21:27:39.177Z,101910.38
2023-03-13T21:30:10.595Z,101911.22
2023-03-13T21:32:39.424Z,101913.28
2023-03-13T21:35:07.353Z,101911.00
2023-03-13T21:37:35.645Z,101915.31
2023-03-13T21:40:04.622Z,101908.09
2023-03-13T21:42:34.374Z,101910.47
2023-03-13T21:45:02.809Z,101909.28
2023-03-13T21:47:37.392Z,101914.16
2023-03-13T21:50:06.502Z,101911.66
2023-03-13T21:52:40.774Z,101911.13
2023-03-13T21:55:11.441Z,101919.09
2023-03-13T21:57:39.954Z,101911.13
2023-03-13T22:00:08.912Z,101913.28
2023-03-13T22:02:37.609Z,101909.50
2023-03-13T22:05:05.587Z,101902.38
2023-03-13T22:07:35.357Z,101893.22
2023-03-13T22:10:02.847Z,101903.13
2023-03-13T22:12:37.477Z,101907.44
2023-03-13T22:15:06.752Z,101912.75
2023-03-13T22:17:34.850Z,101913.69
2023-03-13T22:20:02.444Z,101913.47
2023-03-13T22:22:31.317Z,101915.84
2023-03-13T22:25:04.626Z,101915.50
2023-03-13T22:27:32.760Z,101914.44
2023-03-13T22:30:00.360Z,101913.78
2023-03-13T22:32:28.058Z,101921.75
2023-03-13T22:34:55.932Z,101924.88
2023-03-13T22:37:28.882Z,101922.94
2023-03-13T22:39:57.634Z,101924.34
2023-03-13T22:42:26.170Z,101926.50
2023-03-13T22:44:55.492Z,101918.28
2023-03-13T22:47:24.787Z,101922.81
2023-03-13T22:49:53.771Z,101925.81
2023-03-13T22:52:23.434Z,101913.63
2023-03-13T22:54:51.099Z,101921.38
2023-03-13T22:57:18.607Z,101915.38
2023-03-13T22:59:46.241Z,101918.06
2023-03-13T23:02:13.745Z,101913.75
2023-03-13T23:04:41.713Z,101920.28
2023-03-13T23:07:13.365Z,101918.16
2023-03-13T23:09:41.247Z,101910.94
2023-03-13T23:12:09.863Z,101918.69
2023-03-13T23:14:38.085Z,101916.78
2023-03-13T23:17:07.000Z,101919.78
2023-03-13T23:19:36.109Z,101922.06
2023-03-13T23:22:04.781Z,101920.44
2023-03-13T23:24:33.665Z,101923.25
2023-03-13T23:27:07.930Z,101917.00
2023-03-13T23:29:37.896Z,101917.06
2023-03-13T23:32:07.068Z,101914.84
2023-03-13T23:34:37.160Z,101919.47
2023-03-13T23:37:05.374Z,101916.09
2023-03-13T23:39:40.054Z,101913.75
2023-03-13T23:42:08.564Z,101915.38
2023-03-13T23:44:37.074Z,101908.44
2023-03-13T23:47:06.015Z,101907.63
2023-03-13T23:49:34.315Z,101907.63
2023-03-13T23:52:04.027Z,101896.91
2023-03-13T23:54:32.929Z,101891.84
2023-03-13T23:57:06.488Z,101886.56
2023-03-13T23:59:34.910Z,101879.66
